sensor_id;sensor_type;location;lat;lon;timestamp;P1;durP1;ratioP1;P2;durP2;ratioP2
70667;SDS011;58242;51.250;-1.118;2024-02-26T00:00:05;5.95;;;5.35;;
70667;SDS011;58242;51.250;-1.118;2024-02-26T00:02:34;5.72;;;4.88;;
70667;SDS011;58242;51.250;-1.118;2024-02-26T00:05:06;7.10;;;5.25;;
70667;SDS011;58242;51.250;-1.118;2024-02-26T00:07:32;5.55;;;5.00;;
70667;SDS011;58242;51.250;-1.118;2024-02-26T00:09:58;6.38;;;5.57;;
70667;SDS011;58242;51.250;-1.118;2024-02-26T00:12:23;5.78;;;5.20;;
70667;SDS011;58242;51.250;-1.118;2024-02-26T00:14:48;6.25;;;5.70;;
70667;SDS011;58242;51.250;-1.118;2024-02-26T00:17:14;6.97;;;5.05;;
70667;SDS011;58242;51.250;-1.118;2024-02-26T00:19:40;6.63;;;5.85;;
70667;SDS011;58242;51.250;-1.118;2024-02-26T00:22:05;6.80;;;4.38;;
70667;SDS011;58242;51.250;-1.118;2024-02-26T00:24:30;6.18;;;4.65;;
70667;SDS011;58242;51.250;-1.118;2024-02-26T00:26:56;5.40;;;4.90;;
70667;SDS011;58242;51.250;-1.118;2024-02-26T00:29:21;5.82;;;4.85;;
70667;SDS011;58242;51.250;-1.118;2024-02-26T00:31:47;6.07;;;5.07;;
70667;SDS011;58242;51.250;-1.118;2024-02-26T00:34:12;5.35;;;4.85;;
70667;SDS011;58242;51.250;-1.118;2024-02-26T00:36:38;6.05;;;5.30;;
70667;SDS011;58242;51.250;-1.118;2024-02-26T00:39:03;5.55;;;5.05;;
70667;SDS011;58242;51.250;-1.118;2024-02-26T00:41:29;7.47;;;5.53;;
70667;SDS011;58242;51.250;-1.118;2024-02-26T00:43:54;5.07;;;4.65;;
70667;SDS011;58242;51.250;-1.118;2024-02-26T00:46:20;5.35;;;4.85;;
70667;SDS011;58242;51.250;-1.118;2024-02-26T00:48:45;6.65;;;4.72;;
70667;SDS011;58242;51.250;-1.118;2024-02-26T00:51:11;4.90;;;4.40;;
70667;SDS011;58242;51.250;-1.118;2024-02-26T00:53:36;5.53;;;5.03;;
70667;SDS011;58242;51.250;-1.118;2024-02-26T00:56:01;6.13;;;5.07;;
70667;SDS011;58242;51.250;-1.118;2024-02-26T00:58:27;5.82;;;5.00;;
70667;SDS011;58242;51.250;-1.118;2024-02-26T01:00:52;5.82;;;5.28;;
70667;SDS011;58242;51.250;-1.118;2024-02-26T01:03:18;5.25;;;4.85;;
70667;SDS011;58242;51.250;-1.118;2024-02-26T01:05:44;5.88;;;4.43;;
70667;SDS011;58242;51.250;-1.118;2024-02-26T01:08:09;6.55;;;5.13;;
70667;SDS011;58242;51.250;-1.118;2024-02-26T01:10:35;6.30;;;4.90;;
70667;SDS011;58242;51.250;-1.118;2024-02-26T01:13:01;5.63;;;5.03;;
70667;SDS011;58242;51.250;-1.118;2024-02-26T01:15:26;5.82;;;4.60;;
70667;SDS011;58242;51.250;-1.118;2024-02-26T01:17:52;6.97;;;5.30;;
70667;SDS011;58242;51.250;-1.118;2024-02-26T01:20:17;6.10;;;5.47;;
70667;SDS011;58242;51.250;-1.118;2024-02-26T01:22:43;8.75;;;5.45;;
70667;SDS011;58242;51.250;-1.118;2024-02-26T01:25:09;5.82;;;5.15;;
70667;SDS011;58242;51.250;-1.118;2024-02-26T01:27:35;8.27;;;5.82;;
70667;SDS011;58242;51.250;-1.118;2024-02-26T01:30:05;6.70;;;5.57;;
70667;SDS011;58242;51.250;-1.118;2024-02-26T01:34:56;5.13;;;4.63;;
70667;SDS011;58242;51.250;-1.118;2024-02-26T01:37:22;7.43;;;5.78;;
70667;SDS011;58242;51.250;-1.118;2024-02-26T01:39:47;7.53;;;5.40;;
70667;SDS011;58242;51.250;-1.118;2024-02-26T01:42:13;7.47;;;5.45;;
70667;SDS011;58242;51.250;-1.118;2024-02-26T01:44:38;7.25;;;5.43;;
70667;SDS011;58242;51.250;-1.118;2024-02-26T01:47:04;4.88;;;4.47;;
70667;SDS011;58242;51.250;-1.118;2024-02-26T01:49:33;7.25;;;5.40;;
70667;SDS011;58242;51.250;-1.118;2024-02-26T01:52:00;9.27;;;5.32;;
70667;SDS011;58242;51.250;-1.118;2024-02-26T01:54:27;5.22;;;4.78;;
70667;SDS011;58242;51.250;-1.118;2024-02-26T01:56:52;5.35;;;4.82;;
70667;SDS011;58242;51.250;-1.118;2024-02-26T01:59:18;5.28;;;4.68;;
70667;SDS011;58242;51.250;-1.118;2024-02-26T02:01:44;5.60;;;4.90;;
70667;SDS011;58242;51.250;-1.118;2024-02-26T02:06:39;8.82;;;5.25;;
70667;SDS011;58242;51.250;-1.118;2024-02-26T02:09:07;4.65;;;4.25;;
70667;SDS011;58242;51.250;-1.118;2024-02-26T02:11:33;5.50;;;4.65;;
70667;SDS011;58242;51.250;-1.118;2024-02-26T02:13:59;5.75;;;5.25;;
70667;SDS011;58242;51.250;-1.118;2024-02-26T02:16:24;5.53;;;4.53;;
70667;SDS011;58242;51.250;-1.118;2024-02-26T02:18:50;5.25;;;4.82;;
70667;SDS011;58242;51.250;-1.118;2024-02-26T02:21:15;4.90;;;4.50;;
70667;SDS011;58242;51.250;-1.118;2024-02-26T02:23:40;4.50;;;4.10;;
70667;SDS011;58242;51.250;-1.118;2024-02-26T02:26:11;5.45;;;5.03;;
70667;SDS011;58242;51.250;-1.118;2024-02-26T02:28:36;6.40;;;4.72;;
70667;SDS011;58242;51.250;-1.118;2024-02-26T02:31:02;6.60;;;4.30;;
70667;SDS011;58242;51.250;-1.118;2024-02-26T02:33:28;5.93;;;4.70;;
70667;SDS011;58242;51.250;-1.118;2024-02-26T02:35:54;6.30;;;4.65;;
70667;SDS011;58242;51.250;-1.118;2024-02-26T02:38:20;5.70;;;4.20;;
70667;SDS011;58242;51.250;-1.118;2024-02-26T02:40:45;4.55;;;4.15;;
70667;SDS011;58242;51.250;-1.118;2024-02-26T02:43:11;7.88;;;3.90;;
70667;SDS011;58242;51.250;-1.118;2024-02-26T02:45:36;7.20;;;4.13;;
70667;SDS011;58242;51.250;-1.118;2024-02-26T02:48:02;4.43;;;3.80;;
70667;SDS011;58242;51.250;-1.118;2024-02-26T02:50:27;4.85;;;3.90;;
70667;SDS011;58242;51.250;-1.118;2024-02-26T02:52:54;3.63;;;3.30;;
70667;SDS011;58242;51.250;-1.118;2024-02-26T02:55:19;5.63;;;3.95;;
70667;SDS011;58242;51.250;-1.118;2024-02-26T02:57:45;4.55;;;4.07;;
70667;SDS011;58242;51.250;-1.118;2024-02-26T03:00:10;4.70;;;3.75;;
70667;SDS011;58242;51.250;-1.118;2024-02-26T03:02:36;4.90;;;4.25;;
70667;SDS011;58242;51.250;-1.118;2024-02-26T03:05:04;5.68;;;3.90;;
70667;SDS011;58242;51.250;-1.118;2024-02-26T03:07:30;4.03;;;3.63;;
70667;SDS011;58242;51.250;-1.118;2024-02-26T03:09:56;5.82;;;3.53;;
70667;SDS011;58242;51.250;-1.118;2024-02-26T03:12:21;5.93;;;3.63;;
70667;SDS011;58242;51.250;-1.118;2024-02-26T03:14:47;3.92;;;3.58;;
70667;SDS011;58242;51.250;-1.118;2024-02-26T03:17:12;4.95;;;3.78;;
70667;SDS011;58242;51.250;-1.118;2024-02-26T03:19:37;5.10;;;3.30;;
70667;SDS011;58242;51.250;-1.118;2024-02-26T03:22:03;5.85;;;3.67;;
70667;SDS011;58242;51.250;-1.118;2024-02-26T03:24:28;6.65;;;3.50;;
70667;SDS011;58242;51.250;-1.118;2024-02-26T03:26:53;3.42;;;3.15;;
70667;SDS011;58242;51.250;-1.118;2024-02-26T03:29:19;4.30;;;3.42;;
70667;SDS011;58242;51.250;-1.118;2024-02-26T03:31:44;3.63;;;3.33;;
70667;SDS011;58242;51.250;-1.118;2024-02-26T03:34:10;7.43;;;3.65;;
70667;SDS011;58242;51.250;-1.118;2024-02-26T03:36:37;4.25;;;3.22;;
70667;SDS011;58242;51.250;-1.118;2024-02-26T03:39:03;3.20;;;3.00;;
70667;SDS011;58242;51.250;-1.118;2024-02-26T03:41:32;3.60;;;3.13;;
70667;SDS011;58242;51.250;-1.118;2024-02-26T03:44:01;5.03;;;3.57;;
70667;SDS011;58242;51.250;-1.118;2024-02-26T03:46:26;3.78;;;3.20;;
70667;SDS011;58242;51.250;-1.118;2024-02-26T03:48:52;3.97;;;3.50;;
70667;SDS011;58242;51.250;-1.118;2024-02-26T03:51:17;5.63;;;3.45;;
70667;SDS011;58242;51.250;-1.118;2024-02-26T03:53:43;6.07;;;3.78;;
70667;SDS011;58242;51.250;-1.118;2024-02-26T03:56:08;8.45;;;3.90;;
70667;SDS011;58242;51.250;-1.118;2024-02-26T03:58:36;3.80;;;3.20;;
70667;SDS011;58242;51.250;-1.118;2024-02-26T04:01:02;3.78;;;3.42;;
70667;SDS011;58242;51.250;-1.118;2024-02-26T04:03:27;5.72;;;3.30;;
70667;SDS011;58242;51.250;-1.118;2024-02-26T04:05:53;4.97;;;3.47;;
70667;SDS011;58242;51.250;-1.118;2024-02-26T04:08:18;3.75;;;3.42;;
70667;SDS011;58242;51.250;-1.118;2024-02-26T04:10:43;5.63;;;3.42;;
70667;SDS011;58242;51.250;-1.118;2024-02-26T04:13:09;3.70;;;3.20;;
70667;SDS011;58242;51.250;-1.118;2024-02-26T04:15:34;4.88;;;3.22;;
70667;SDS011;58242;51.250;-1.118;2024-02-26T04:17:59;3.35;;;3.03;;
70667;SDS011;58242;51.250;-1.118;2024-02-26T04:20:25;4.65;;;3.25;;
70667;SDS011;58242;51.250;-1.118;2024-02-26T04:22:50;3.88;;;3.53;;
70667;SDS011;58242;51.250;-1.118;2024-02-26T04:25:15;3.90;;;3.33;;
70667;SDS011;58242;51.250;-1.118;2024-02-26T04:27:41;3.50;;;2.90;;
70667;SDS011;58242;51.250;-1.118;2024-02-26T04:30:06;3.58;;;3.28;;
70667;SDS011;58242;51.250;-1.118;2024-02-26T04:32:32;5.53;;;3.28;;
70667;SDS011;58242;51.250;-1.118;2024-02-26T04:34:59;4.22;;;3.22;;
70667;SDS011;58242;51.250;-1.118;2024-02-26T04:37:24;3.80;;;2.85;;
70667;SDS011;58242;51.250;-1.118;2024-02-26T04:39:50;3.45;;;2.45;;
70667;SDS011;58242;51.250;-1.118;2024-02-26T04:42:15;5.10;;;2.80;;
70667;SDS011;58242;51.250;-1.118;2024-02-26T04:44:40;4.50;;;3.33;;
70667;SDS011;58242;51.250;-1.118;2024-02-26T04:47:06;3.35;;;3.05;;
70667;SDS011;58242;51.250;-1.118;2024-02-26T04:49:32;2.90;;;2.70;;
70667;SDS011;58242;51.250;-1.118;2024-02-26T04:51:59;5.60;;;3.10;;
70667;SDS011;58242;51.250;-1.118;2024-02-26T04:54:24;3.28;;;2.70;;
70667;SDS011;58242;51.250;-1.118;2024-02-26T04:56:49;3.80;;;2.72;;
70667;SDS011;58242;51.250;-1.118;2024-02-26T04:59:15;3.42;;;2.58;;
70667;SDS011;58242;51.250;-1.118;2024-02-26T05:01:40;3.03;;;2.70;;
70667;SDS011;58242;51.250;-1.118;2024-02-26T05:04:06;2.70;;;2.50;;
70667;SDS011;58242;51.250;-1.118;2024-02-26T05:06:32;4.05;;;2.65;;
70667;SDS011;58242;51.250;-1.118;2024-02-26T05:08:58;2.55;;;2.42;;
70667;SDS011;58242;51.250;-1.118;2024-02-26T05:11:23;3.63;;;2.60;;
70667;SDS011;58242;51.250;-1.118;2024-02-26T05:13:49;10.90;;;2.78;;
70667;SDS011;58242;51.250;-1.118;2024-02-26T05:16:14;4.68;;;2.50;;
70667;SDS011;58242;51.250;-1.118;2024-02-26T05:18:39;5.15;;;3.05;;
70667;SDS011;58242;51.250;-1.118;2024-02-26T05:21:05;4.22;;;2.83;;
70667;SDS011;58242;51.250;-1.118;2024-02-26T05:23:30;2.67;;;2.58;;
70667;SDS011;58242;51.250;-1.118;2024-02-26T05:25:56;4.32;;;2.45;;
70667;SDS011;58242;51.250;-1.118;2024-02-26T05:28:21;5.82;;;2.60;;
70667;SDS011;58242;51.250;-1.118;2024-02-26T05:30:46;7.65;;;2.75;;
70667;SDS011;58242;51.250;-1.118;2024-02-26T05:33:13;2.70;;;2.45;;
70667;SDS011;58242;51.250;-1.118;2024-02-26T05:35:38;3.50;;;2.70;;
70667;SDS011;58242;51.250;-1.118;2024-02-26T05:38:03;3.75;;;2.58;;
70667;SDS011;58242;51.250;-1.118;2024-02-26T05:40:29;2.55;;;2.30;;
70667;SDS011;58242;51.250;-1.118;2024-02-26T05:42:55;2.88;;;2.45;;
70667;SDS011;58242;51.250;-1.118;2024-02-26T05:45:20;4.63;;;2.65;;
70667;SDS011;58242;51.250;-1.118;2024-02-26T05:47:46;3.28;;;2.10;;
70667;SDS011;58242;51.250;-1.118;2024-02-26T05:50:12;3.15;;;2.40;;
70667;SDS011;58242;51.250;-1.118;2024-02-26T05:52:38;5.35;;;2.65;;
70667;SDS011;58242;51.250;-1.118;2024-02-26T05:55:04;4.03;;;2.05;;
70667;SDS011;58242;51.250;-1.118;2024-02-26T05:57:30;2.90;;;1.95;;
70667;SDS011;58242;51.250;-1.118;2024-02-26T05:59:56;4.95;;;1.95;;
70667;SDS011;58242;51.250;-1.118;2024-02-26T06:02:21;3.25;;;2.28;;
70667;SDS011;58242;51.250;-1.118;2024-02-26T06:04:46;4.07;;;2.03;;
70667;SDS011;58242;51.250;-1.118;2024-02-26T06:07:12;3.88;;;2.15;;
70667;SDS011;58242;51.250;-1.118;2024-02-26T06:09:37;4.00;;;2.30;;
70667;SDS011;58242;51.250;-1.118;2024-02-26T06:12:03;2.38;;;2.10;;
70667;SDS011;58242;51.250;-1.118;2024-02-26T06:14:28;2.53;;;2.25;;
70667;SDS011;58242;51.250;-1.118;2024-02-26T06:16:54;2.30;;;2.15;;
70667;SDS011;58242;51.250;-1.118;2024-02-26T06:19:19;4.68;;;2.00;;
70667;SDS011;58242;51.250;-1.118;2024-02-26T06:21:44;2.47;;;2.25;;
70667;SDS011;58242;51.250;-1.118;2024-02-26T06:24:10;4.88;;;2.47;;
70667;SDS011;58242;51.250;-1.118;2024-02-26T06:26:35;3.75;;;2.20;;
70667;SDS011;58242;51.250;-1.118;2024-02-26T06:29:00;3.92;;;2.22;;
70667;SDS011;58242;51.250;-1.118;2024-02-26T06:31:26;4.10;;;1.80;;
70667;SDS011;58242;51.250;-1.118;2024-02-26T06:33:52;4.18;;;1.92;;
70667;SDS011;58242;51.250;-1.118;2024-02-26T06:36:18;3.22;;;1.80;;
70667;SDS011;58242;51.250;-1.118;2024-02-26T06:38:44;1.98;;;1.75;;
70667;SDS011;58242;51.250;-1.118;2024-02-26T06:41:09;2.10;;;1.73;;
70667;SDS011;58242;51.250;-1.118;2024-02-26T06:43:34;5.25;;;1.73;;
70667;SDS011;58242;51.250;-1.118;2024-02-26T06:46:00;3.67;;;2.42;;
70667;SDS011;58242;51.250;-1.118;2024-02-26T06:48:25;4.28;;;2.00;;
70667;SDS011;58242;51.250;-1.118;2024-02-26T06:50:51;2.13;;;1.92;;
70667;SDS011;58242;51.250;-1.118;2024-02-26T06:53:16;4.18;;;1.98;;
70667;SDS011;58242;51.250;-1.118;2024-02-26T06:55:42;2.00;;;1.90;;
70667;SDS011;58242;51.250;-1.118;2024-02-26T06:58:08;2.80;;;2.03;;
70667;SDS011;58242;51.250;-1.118;2024-02-26T07:00:33;6.80;;;2.47;;
70667;SDS011;58242;51.250;-1.118;2024-02-26T07:02:59;4.30;;;2.20;;
70667;SDS011;58242;51.250;-1.118;2024-02-26T07:05:24;2.17;;;1.92;;
70667;SDS011;58242;51.250;-1.118;2024-02-26T07:07:50;2.88;;;2.40;;
70667;SDS011;58242;51.250;-1.118;2024-02-26T07:10:15;3.50;;;2.08;;
70667;SDS011;58242;51.250;-1.118;2024-02-26T07:12:41;3.75;;;2.45;;
70667;SDS011;58242;51.250;-1.118;2024-02-26T07:15:06;2.90;;;2.10;;
70667;SDS011;58242;51.250;-1.118;2024-02-26T07:17:33;5.40;;;2.33;;
70667;SDS011;58242;51.250;-1.118;2024-02-26T07:20:02;5.75;;;2.28;;
70667;SDS011;58242;51.250;-1.118;2024-02-26T07:24:56;2.92;;;1.90;;
70667;SDS011;58242;51.250;-1.118;2024-02-26T07:27:21;4.28;;;2.17;;
70667;SDS011;58242;51.250;-1.118;2024-02-26T07:29:47;6.82;;;2.28;;
70667;SDS011;58242;51.250;-1.118;2024-02-26T07:32:12;1.80;;;1.70;;
70667;SDS011;58242;51.250;-1.118;2024-02-26T07:34:38;2.90;;;2.05;;
70667;SDS011;58242;51.250;-1.118;2024-02-26T07:37:06;2.50;;;1.80;;
70667;SDS011;58242;51.250;-1.118;2024-02-26T07:39:32;5.88;;;2.30;;
70667;SDS011;58242;51.250;-1.118;2024-02-26T07:41:57;4.55;;;2.60;;
70667;SDS011;58242;51.250;-1.118;2024-02-26T07:44:22;2.25;;;1.98;;
70667;SDS011;58242;51.250;-1.118;2024-02-26T07:46:48;5.63;;;2.50;;
70667;SDS011;58242;51.250;-1.118;2024-02-26T07:49:13;3.65;;;2.25;;
70667;SDS011;58242;51.250;-1.118;2024-02-26T07:51:39;2.20;;;2.00;;
70667;SDS011;58242;51.250;-1.118;2024-02-26T07:54:04;2.95;;;2.10;;
70667;SDS011;58242;51.250;-1.118;2024-02-26T07:56:29;2.28;;;2.08;;
70667;SDS011;58242;51.250;-1.118;2024-02-26T07:58:55;2.55;;;2.03;;
70667;SDS011;58242;51.250;-1.118;2024-02-26T08:01:20;2.38;;;2.20;;
70667;SDS011;58242;51.250;-1.118;2024-02-26T08:03:45;3.50;;;2.67;;
70667;SDS011;58242;51.250;-1.118;2024-02-26T08:06:11;2.45;;;2.15;;
70667;SDS011;58242;51.250;-1.118;2024-02-26T08:08:36;2.20;;;2.00;;
70667;SDS011;58242;51.250;-1.118;2024-02-26T08:11:01;3.15;;;2.10;;
70667;SDS011;58242;51.250;-1.118;2024-02-26T08:13:27;3.22;;;1.80;;
70667;SDS011;58242;51.250;-1.118;2024-02-26T08:15:52;3.08;;;1.95;;
70667;SDS011;58242;51.250;-1.118;2024-02-26T08:18:18;1.80;;;1.70;;
70667;SDS011;58242;51.250;-1.118;2024-02-26T08:20:44;2.10;;;1.90;;
70667;SDS011;58242;51.250;-1.118;2024-02-26T08:23:09;1.90;;;1.80;;
70667;SDS011;58242;51.250;-1.118;2024-02-26T08:25:35;2.53;;;2.00;;
70667;SDS011;58242;51.250;-1.118;2024-02-26T08:28:00;2.83;;;2.35;;
70667;SDS011;58242;51.250;-1.118;2024-02-26T08:30:26;3.13;;;1.92;;
70667;SDS011;58242;51.250;-1.118;2024-02-26T08:32:51;3.92;;;2.42;;
70667;SDS011;58242;51.250;-1.118;2024-02-26T08:35:17;2.38;;;2.10;;
70667;SDS011;58242;51.250;-1.118;2024-02-26T08:37:46;3.17;;;2.20;;
70667;SDS011;58242;51.250;-1.118;2024-02-26T08:40:11;2.22;;;2.08;;
70667;SDS011;58242;51.250;-1.118;2024-02-26T08:42:37;3.05;;;2.40;;
70667;SDS011;58242;51.250;-1.118;2024-02-26T08:45:02;2.35;;;2.15;;
70667;SDS011;58242;51.250;-1.118;2024-02-26T08:47:28;6.30;;;2.13;;
70667;SDS011;58242;51.250;-1.118;2024-02-26T08:49:53;3.38;;;2.20;;
70667;SDS011;58242;51.250;-1.118;2024-02-26T08:52:19;2.38;;;1.88;;
70667;SDS011;58242;51.250;-1.118;2024-02-26T08:54:44;2.63;;;2.17;;
70667;SDS011;58242;51.250;-1.118;2024-02-26T08:57:10;2.45;;;2.08;;
70667;SDS011;58242;51.250;-1.118;2024-02-26T08:59:35;1.77;;;1.67;;
70667;SDS011;58242;51.250;-1.118;2024-02-26T09:02:00;3.28;;;2.05;;
70667;SDS011;58242;51.250;-1.118;2024-02-26T09:04:26;2.75;;;2.55;;
70667;SDS011;58242;51.250;-1.118;2024-02-26T09:06:52;3.28;;;2.38;;
70667;SDS011;58242;51.250;-1.118;2024-02-26T09:09:17;2.22;;;2.00;;
70667;SDS011;58242;51.250;-1.118;2024-02-26T09:11:43;1.67;;;1.58;;
70667;SDS011;58242;51.250;-1.118;2024-02-26T09:14:08;1.80;;;1.70;;
70667;SDS011;58242;51.250;-1.118;2024-02-26T09:16:33;3.80;;;2.10;;
70667;SDS011;58242;51.250;-1.118;2024-02-26T09:18:59;2.50;;;2.17;;
70667;SDS011;58242;51.250;-1.118;2024-02-26T09:21:24;2.60;;;2.40;;
70667;SDS011;58242;51.250;-1.118;2024-02-26T09:23:50;1.92;;;1.83;;
70667;SDS011;58242;51.250;-1.118;2024-02-26T09:26:16;2.10;;;2.00;;
70667;SDS011;58242;51.250;-1.118;2024-02-26T09:28:41;1.90;;;1.80;;
70667;SDS011;58242;51.250;-1.118;2024-02-26T09:31:07;4.57;;;1.80;;
70667;SDS011;58242;51.250;-1.118;2024-02-26T09:33:32;3.25;;;2.00;;
70667;SDS011;58242;51.250;-1.118;2024-02-26T09:35:58;2.63;;;1.70;;
70667;SDS011;58242;51.250;-1.118;2024-02-26T09:38:25;2.05;;;1.80;;
70667;SDS011;58242;51.250;-1.118;2024-02-26T09:40:51;2.30;;;2.03;;
70667;SDS011;58242;51.250;-1.118;2024-02-26T09:43:16;2.30;;;2.08;;
70667;SDS011;58242;51.250;-1.118;2024-02-26T09:45:44;3.83;;;1.90;;
70667;SDS011;58242;51.250;-1.118;2024-02-26T09:48:10;2.10;;;2.00;;
70667;SDS011;58242;51.250;-1.118;2024-02-26T09:50:37;2.83;;;2.15;;
70667;SDS011;58242;51.250;-1.118;2024-02-26T09:53:05;6.32;;;2.50;;
70667;SDS011;58242;51.250;-1.118;2024-02-26T09:55:35;2.65;;;2.22;;
70667;SDS011;58242;51.250;-1.118;2024-02-26T09:58:00;2.10;;;2.00;;
70667;SDS011;58242;51.250;-1.118;2024-02-26T10:00:29;2.25;;;2.03;;
70667;SDS011;58242;51.250;-1.118;2024-02-26T10:02:59;2.42;;;1.95;;
70667;SDS011;58242;51.250;-1.118;2024-02-26T10:05:28;2.25;;;1.95;;
70667;SDS011;58242;51.250;-1.118;2024-02-26T10:07:54;2.10;;;2.00;;
70667;SDS011;58242;51.250;-1.118;2024-02-26T10:10:22;3.50;;;2.35;;
70667;SDS011;58242;51.250;-1.118;2024-02-26T10:12:48;3.05;;;2.80;;
70667;SDS011;58242;51.250;-1.118;2024-02-26T10:15:13;2.22;;;2.13;;
70667;SDS011;58242;51.250;-1.118;2024-02-26T10:17:39;2.83;;;2.63;;
70667;SDS011;58242;51.250;-1.118;2024-02-26T10:20:15;3.03;;;2.40;;
70667;SDS011;58242;51.250;-1.118;2024-02-26T10:22:46;2.78;;;2.40;;
70667;SDS011;58242;51.250;-1.118;2024-02-26T10:25:12;2.53;;;2.33;;
70667;SDS011;58242;51.250;-1.118;2024-02-26T10:27:38;1.95;;;1.85;;
70667;SDS011;58242;51.250;-1.118;2024-02-26T10:30:21;4.30;;;2.22;;
70667;SDS011;58242;51.250;-1.118;2024-02-26T10:32:48;2.92;;;2.10;;
70667;SDS011;58242;51.250;-1.118;2024-02-26T10:35:14;2.05;;;1.70;;
70667;SDS011;58242;51.250;-1.118;2024-02-26T10:37:43;2.00;;;1.90;;
70667;SDS011;58242;51.250;-1.118;2024-02-26T10:40:09;3.35;;;2.03;;
70667;SDS011;58242;51.250;-1.118;2024-02-26T10:42:36;4.30;;;2.00;;
70667;SDS011;58242;51.250;-1.118;2024-02-26T10:45:01;3.55;;;2.05;;
70667;SDS011;58242;51.250;-1.118;2024-02-26T10:47:27;2.33;;;2.13;;
70667;SDS011;58242;51.250;-1.118;2024-02-26T10:49:54;4.35;;;2.28;;
70667;SDS011;58242;51.250;-1.118;2024-02-26T10:52:21;2.00;;;1.80;;
70667;SDS011;58242;51.250;-1.118;2024-02-26T10:54:50;2.10;;;1.92;;
70667;SDS011;58242;51.250;-1.118;2024-02-26T10:57:19;4.50;;;2.38;;
70667;SDS011;58242;51.250;-1.118;2024-02-26T10:59:46;3.45;;;2.20;;
70667;SDS011;58242;51.250;-1.118;2024-02-26T11:02:12;4.80;;;2.17;;
70667;SDS011;58242;51.250;-1.118;2024-02-26T11:04:38;4.65;;;2.15;;
70667;SDS011;58242;51.250;-1.118;2024-02-26T11:07:04;4.10;;;2.15;;
70667;SDS011;58242;51.250;-1.118;2024-02-26T11:09:31;5.10;;;2.33;;
70667;SDS011;58242;51.250;-1.118;2024-02-26T11:11:57;3.88;;;1.92;;
70667;SDS011;58242;51.250;-1.118;2024-02-26T11:14:24;3.28;;;2.08;;
70667;SDS011;58242;51.250;-1.118;2024-02-26T11:16:51;5.55;;;1.98;;
70667;SDS011;58242;51.250;-1.118;2024-02-26T11:19:16;2.13;;;2.03;;
70667;SDS011;58242;51.250;-1.118;2024-02-26T11:21:43;3.95;;;2.60;;
70667;SDS011;58242;51.250;-1.118;2024-02-26T11:24:11;3.55;;;2.35;;
70667;SDS011;58242;51.250;-1.118;2024-02-26T11:26:57;2.85;;;2.40;;
70667;SDS011;58242;51.250;-1.118;2024-02-26T11:29:29;3.15;;;2.20;;
70667;SDS011;58242;51.250;-1.118;2024-02-26T11:32:00;3.00;;;2.55;;
70667;SDS011;58242;51.250;-1.118;2024-02-26T11:34:25;4.32;;;2.58;;
70667;SDS011;58242;51.250;-1.118;2024-02-26T11:36:52;2.42;;;2.20;;
70667;SDS011;58242;51.250;-1.118;2024-02-26T11:39:18;3.08;;;2.58;;
70667;SDS011;58242;51.250;-1.118;2024-02-26T11:41:43;2.50;;;2.15;;
70667;SDS011;58242;51.250;-1.118;2024-02-26T11:44:09;2.65;;;2.50;;
70667;SDS011;58242;51.250;-1.118;2024-02-26T11:46:40;3.00;;;2.50;;
70667;SDS011;58242;51.250;-1.118;2024-02-26T11:51:56;3.22;;;2.53;;
70667;SDS011;58242;51.250;-1.118;2024-02-26T11:57:29;3.00;;;2.38;;
70667;SDS011;58242;51.250;-1.118;2024-02-26T12:02:47;3.88;;;2.20;;
70667;SDS011;58242;51.250;-1.118;2024-02-26T12:05:17;3.42;;;2.17;;
70667;SDS011;58242;51.250;-1.118;2024-02-26T12:07:49;3.35;;;2.05;;
70667;SDS011;58242;51.250;-1.118;2024-02-26T12:10:27;2.30;;;2.10;;
70667;SDS011;58242;51.250;-1.118;2024-02-26T12:12:59;2.03;;;1.90;;
70667;SDS011;58242;51.250;-1.118;2024-02-26T12:15:33;4.00;;;2.45;;
70667;SDS011;58242;51.250;-1.118;2024-02-26T12:18:02;3.33;;;2.20;;
70667;SDS011;58242;51.250;-1.118;2024-02-26T12:20:29;1.98;;;1.80;;
70667;SDS011;58242;51.250;-1.118;2024-02-26T12:22:56;2.40;;;2.20;;
70667;SDS011;58242;51.250;-1.118;2024-02-26T12:25:23;2.00;;;1.90;;
70667;SDS011;58242;51.250;-1.118;2024-02-26T12:27:51;3.22;;;2.28;;
70667;SDS011;58242;51.250;-1.118;2024-02-26T12:30:16;2.95;;;1.98;;
70667;SDS011;58242;51.250;-1.118;2024-02-26T12:32:42;1.77;;;1.67;;
70667;SDS011;58242;51.250;-1.118;2024-02-26T12:35:08;2.30;;;2.08;;
70667;SDS011;58242;51.250;-1.118;2024-02-26T12:37:34;5.65;;;2.30;;
70667;SDS011;58242;51.250;-1.118;2024-02-26T12:40:02;4.25;;;2.58;;
70667;SDS011;58242;51.250;-1.118;2024-02-26T12:42:30;2.88;;;2.13;;
70667;SDS011;58242;51.250;-1.118;2024-02-26T12:44:58;3.47;;;2.30;;
70667;SDS011;58242;51.250;-1.118;2024-02-26T12:47:23;2.30;;;2.10;;
70667;SDS011;58242;51.250;-1.118;2024-02-26T12:49:49;3.53;;;2.63;;
70667;SDS011;58242;51.250;-1.118;2024-02-26T12:52:14;2.08;;;1.98;;
70667;SDS011;58242;51.250;-1.118;2024-02-26T12:54:41;2.92;;;2.38;;
70667;SDS011;58242;51.250;-1.118;2024-02-26T12:57:07;2.53;;;2.33;;
70667;SDS011;58242;51.250;-1.118;2024-02-26T12:59:34;2.00;;;1.80;;
70667;SDS011;58242;51.250;-1.118;2024-02-26T13:02:00;2.90;;;2.40;;
70667;SDS011;58242;51.250;-1.118;2024-02-26T13:04:27;2.10;;;2.00;;
70667;SDS011;58242;51.250;-1.118;2024-02-26T13:06:54;2.65;;;2.45;;
70667;SDS011;58242;51.250;-1.118;2024-02-26T13:09:20;3.13;;;1.90;;
70667;SDS011;58242;51.250;-1.118;2024-02-26T13:11:52;3.60;;;2.33;;
70667;SDS011;58242;51.250;-1.118;2024-02-26T13:14:19;4.60;;;2.40;;
70667;SDS011;58242;51.250;-1.118;2024-02-26T13:16:54;3.03;;;2.67;;
70667;SDS011;58242;51.250;-1.118;2024-02-26T13:19:20;3.78;;;2.40;;
70667;SDS011;58242;51.250;-1.118;2024-02-26T13:21:45;2.63;;;2.15;;
70667;SDS011;58242;51.250;-1.118;2024-02-26T13:24:12;2.45;;;2.08;;
70667;SDS011;58242;51.250;-1.118;2024-02-26T13:26:38;2.50;;;2.30;;
70667;SDS011;58242;51.250;-1.118;2024-02-26T13:29:04;2.33;;;2.10;;
70667;SDS011;58242;51.250;-1.118;2024-02-26T13:31:29;2.90;;;2.20;;
70667;SDS011;58242;51.250;-1.118;2024-02-26T13:33:55;2.53;;;2.30;;
70667;SDS011;58242;51.250;-1.118;2024-02-26T13:36:21;3.10;;;2.03;;
70667;SDS011;58242;51.250;-1.118;2024-02-26T13:38:53;2.65;;;2.20;;
70667;SDS011;58242;51.250;-1.118;2024-02-26T13:41:20;2.30;;;2.10;;
70667;SDS011;58242;51.250;-1.118;2024-02-26T13:43:46;4.32;;;1.90;;
70667;SDS011;58242;51.250;-1.118;2024-02-26T13:46:12;4.22;;;2.40;;
70667;SDS011;58242;51.250;-1.118;2024-02-26T13:48:39;2.60;;;2.28;;
70667;SDS011;58242;51.250;-1.118;2024-02-26T13:51:04;3.25;;;2.00;;
70667;SDS011;58242;51.250;-1.118;2024-02-26T13:53:30;2.38;;;2.00;;
70667;SDS011;58242;51.250;-1.118;2024-02-26T13:55:55;2.28;;;2.05;;
70667;SDS011;58242;51.250;-1.118;2024-02-26T13:58:23;3.38;;;2.60;;
70667;SDS011;58242;51.250;-1.118;2024-02-26T14:00:49;4.85;;;2.33;;
70667;SDS011;58242;51.250;-1.118;2024-02-26T14:03:15;2.42;;;2.22;;
70667;SDS011;58242;51.250;-1.118;2024-02-26T14:05:41;2.20;;;2.00;;
70667;SDS011;58242;51.250;-1.118;2024-02-26T14:08:06;2.22;;;2.13;;
70667;SDS011;58242;51.250;-1.118;2024-02-26T14:10:32;2.50;;;2.30;;
70667;SDS011;58242;51.250;-1.118;2024-02-26T14:12:58;2.38;;;2.17;;
70667;SDS011;58242;51.250;-1.118;2024-02-26T14:15:24;2.55;;;2.30;;
70667;SDS011;58242;51.250;-1.118;2024-02-26T14:17:50;2.88;;;2.20;;
70667;SDS011;58242;51.250;-1.118;2024-02-26T14:20:20;2.15;;;2.03;;
70667;SDS011;58242;51.250;-1.118;2024-02-26T14:22:46;2.72;;;2.53;;
70667;SDS011;58242;51.250;-1.118;2024-02-26T14:25:12;2.28;;;2.17;;
70667;SDS011;58242;51.250;-1.118;2024-02-26T14:27:38;2.90;;;2.20;;
70667;SDS011;58242;51.250;-1.118;2024-02-26T14:30:03;3.47;;;2.17;;
70667;SDS011;58242;51.250;-1.118;2024-02-26T14:32:29;2.85;;;2.22;;
70667;SDS011;58242;51.250;-1.118;2024-02-26T14:34:56;2.13;;;2.03;;
70667;SDS011;58242;51.250;-1.118;2024-02-26T14:37:21;2.63;;;2.42;;
70667;SDS011;58242;51.250;-1.118;2024-02-26T14:39:47;3.08;;;2.42;;
70667;SDS011;58242;51.250;-1.118;2024-02-26T14:42:13;2.63;;;2.42;;